Time;durP1;ratioP1;P1;durP2;ratioP2;P2;SDS_P1;SDS_P2;PMS_P1;PMS_P2;Temp;Humidity;BMP_temperature;BMP_pressure;BME280_temperature;BME280_humidity;BME280_pressure;Samples;Min_cycle;Max_cycle;Signal;HPM_P1;HPM_P2
2020/12/03 00:00:59;;;;;;;31.03;10.00;;;;;;;2.04;100.00;100294.47;5017177;28;20324;-67
2020/12/03 00:03:28;;;;;;;31.17;10.53;;;;;;;2.04;100.00;100289.31;5011043;28;20350;-67
2020/12/03 00:06:14;;;;;;;31.03;10.50;;;;;;;2.05;100.00;100275.59;5019643;28;20362;-67
2020/12/03 00:08:43;;;;;;;32.20;10.17;;;;;;;2.05;100.00;100279.03;5006756;28;20287;-67
2020/12/03 00:11:09;;;;;;;31.17;9.70;;;;;;;2.04;100.00;100274.72;5023778;28;20279;-67
2020/12/03 00:13:35;;;;;;;32.27;9.93;;;;;;;2.07;100.00;100276.53;5013236;28;20292;-68
2020/12/03 00:16:02;;;;;;;30.27;10.37;;;;;;;2.09;100.00;100261.97;5005161;28;20030;-67
2020/12/03 00:18:30;;;;;;;32.63;10.90;;;;;;;2.10;100.00;100253.41;5011896;28;20293;-65
2020/12/03 00:20:56;;;;;;;29.67;10.27;;;;;;;2.12;100.00;100253.44;5012144;28;20284;-65
2020/12/03 00:23:22;;;;;;;29.60;10.47;;;;;;;2.10;100.00;100248.25;5006061;28;20296;-65
2020/12/03 00:25:49;;;;;;;33.07;10.50;;;;;;;2.13;100.00;100261.22;5006428;28;20299;-65
2020/12/03 00:28:15;;;;;;;28.43;10.17;;;;;;;2.13;100.00;100244.88;5007447;28;20031;-65
2020/12/03 00:30:41;;;;;;;36.97;11.57;;;;;;;2.13;100.00;100234.56;5006907;28;20921;-64
2020/12/03 00:33:06;;;;;;;31.53;9.30;;;;;;;2.14;100.00;100237.16;5004078;28;20556;-64
2020/12/03 00:35:32;;;;;;;25.80;9.90;;;;;;;2.17;100.00;100234.66;5013200;28;20107;-65
2020/12/03 00:37:57;;;;;;;30.00;10.40;;;;;;;2.19;100.00;100240.78;5011524;28;20026;-66
2020/12/03 00:40:23;;;;;;;29.17;10.27;;;;;;;2.21;100.00;100233.06;5018114;28;20029;-64
2020/12/03 00:42:54;;;;;;;32.73;9.90;;;;;;;2.22;100.00;100227.06;5015297;28;20029;-66
2020/12/03 00:45:19;;;;;;;34.40;10.87;;;;;;;2.20;100.00;100215.84;5015368;28;20275;-65
2020/12/03 00:47:45;;;;;;;30.40;10.27;;;;;;;2.19;100.00;100212.41;5008690;28;20289;-64
2020/12/03 00:50:13;;;;;;;32.60;10.17;;;;;;;2.20;100.00;100213.28;5011360;28;20050;-65
2020/12/03 00:52:38;;;;;;;26.17;9.80;;;;;;;2.18;100.00;100208.06;5013924;28;20029;-65
2020/12/03 00:55:05;;;;;;;24.83;9.17;;;;;;;2.20;100.00;100208.13;5012661;28;20291;-65
2020/12/03 00:57:30;;;;;;;33.63;10.60;;;;;;;2.20;100.00;100197.78;5014385;28;20022;-65
2020/12/03 00:59:56;;;;;;;27.83;10.00;;;;;;;2.21;100.00;100200.41;5017965;28;20371;-65
2020/12/03 01:02:21;;;;;;;30.93;11.13;;;;;;;2.21;100.00;100205.56;5012809;28;20033;-64
2020/12/03 01:04:46;;;;;;;29.43;9.20;;;;;;;2.21;100.00;100205.56;5012962;28;20038;-65
2020/12/03 01:07:12;;;;;;;33.83;11.37;;;;;;;2.22;100.00;100202.16;5007300;28;20072;-65
2020/12/03 01:09:39;;;;;;;28.40;9.00;;;;;;;2.25;100.00;100202.22;5013241;28;20057;-66
2020/12/03 01:12:06;;;;;;;29.63;10.50;;;;;;;2.26;100.00;100200.53;5010169;28;20453;-64
2020/12/03 01:14:34;;;;;;;30.40;9.77;;;;;;;2.27;100.00;100187.66;5013343;28;20316;-65
2020/12/03 01:17:08;;;;;;;30.40;10.13;;;;;;;2.27;100.00;100185.09;5011043;28;20290;-65
2020/12/03 01:19:34;;;;;;;29.97;10.17;;;;;;;2.29;100.00;100191.16;5009482;28;20380;-65
2020/12/03 01:21:59;;;;;;;31.10;11.50;;;;;;;2.29;100.00;100183.41;5013293;28;20282;-64
2020/12/03 01:24:25;;;;;;;27.60;9.77;;;;;;;2.29;100.00;100180.84;5015603;28;20048;-65
2020/12/03 01:26:50;;;;;;;29.40;10.60;;;;;;;2.28;100.00;100184.25;5012793;28;20029;-65
2020/12/03 01:29:21;;;;;;;31.67;10.03;;;;;;;2.30;100.00;100171.38;5012515;28;20017;-65
2020/12/03 01:31:46;;;;;;;28.23;9.93;;;;;;;2.33;100.00;100174.06;5014545;28;20038;-65
2020/12/03 01:34:12;;;;;;;28.27;9.27;;;;;;;2.34;100.00;100166.38;5009865;28;20281;-65
2020/12/03 01:36:38;;;;;;;29.50;9.97;;;;;;;2.36;100.00;100166.41;5011198;28;20053;-65
2020/12/03 01:39:05;;;;;;;30.60;10.37;;;;;;;2.39;100.00;100163.03;5011964;28;20108;-65
2020/12/03 01:41:30;;;;;;;30.27;9.50;;;;;;;2.35;100.00;100162.94;5014356;28;20450;-65
2020/12/03 01:43:56;;;;;;;28.70;9.47;;;;;;;2.36;100.00;100145.75;5013772;28;20277;-65
2020/12/03 01:46:22;;;;;;;23.53;8.90;;;;;;;2.38;100.00;100151.84;5017130;28;20025;-65
2020/12/03 01:48:48;;;;;;;30.40;9.73;;;;;;;2.38;100.00;100140.63;5018655;28;20032;-65
2020/12/03 01:51:28;;;;;;;30.77;9.60;;;;;;;2.39;100.00;100142.38;5010623;28;20837;-65
2020/12/03 01:53:57;;;;;;;33.30;10.67;;;;;;;2.40;100.00;100138.97;5011587;28;20073;-65
2020/12/03 01:56:52;;;;;;;31.37;9.83;;;;;;;2.41;100.00;100135.53;5015852;28;20821;-65
2020/12/03 01:59:18;;;;;;;30.30;10.70;;;;;;;2.40;100.00;100134.69;4997519;28;20853;-65
2020/12/03 02:01:44;;;;;;;28.23;10.70;;;;;;;2.41;100.00;100120.94;5010022;28;20300;-65
2020/12/03 02:04:09;;;;;;;26.17;9.50;;;;;;;2.39;100.00;100127.78;5013717;28;20760;-65
2020/12/03 02:06:40;;;;;;;27.43;9.43;;;;;;;2.42;100.00;100121.81;5009957;28;20045;-65
2020/12/03 02:09:08;;;;;;;30.10;10.07;;;;;;;2.41;100.00;100114.91;5014645;28;20030;-65
2020/12/03 02:11:34;;;;;;;29.90;10.90;;;;;;;2.45;100.00;100116.75;5018283;28;20280;-65
2020/12/03 02:14:04;;;;;;;28.83;10.83;;;;;;;2.44;100.00;100109.84;5029987;28;20272;-65
2020/12/03 02:16:32;;;;;;;29.37;9.80;;;;;;;2.47;100.00;100109.91;5015241;28;20080;-65
2020/12/03 02:18:58;;;;;;;27.67;9.47;;;;;;;2.46;100.00;100103.00;5017026;28;20382;-64
2020/12/03 02:21:23;;;;;;;31.17;10.00;;;;;;;2.46;100.00;100096.16;5010361;28;20310;-64
2020/12/03 02:23:49;;;;;;;25.67;9.80;;;;;;;2.50;100.00;100089.34;5010120;28;20105;-65
2020/12/03 02:26:15;;;;;;;28.40;10.30;;;;;;;2.50;100.00;100085.06;5011467;28;20037;-64
2020/12/03 02:28:42;;;;;;;29.47;10.00;;;;;;;2.49;100.00;100078.16;5010194;28;20025;-65
2020/12/03 02:31:08;;;;;;;32.60;10.60;;;;;;;2.49;100.00;100067.81;5010771;28;20371;-65
2020/12/03 02:33:33;;;;;;;29.23;9.47;;;;;;;2.51;100.00;100060.97;5009614;28;20632;-65
2020/12/03 02:35:59;;;;;;;27.73;9.50;;;;;;;2.53;100.00;100058.44;5010144;28;20026;-65
2020/12/03 02:38:29;;;;;;;29.07;9.93;;;;;;;2.53;100.00;100048.13;5009228;28;20210;-65
2020/12/03 02:40:55;;;;;;;28.80;8.87;;;;;;;2.53;100.00;100040.38;5010951;28;20028;-64
2020/12/03 02:43:20;;;;;;;30.13;9.57;;;;;;;2.58;100.00;100038.78;5016158;28;20284;-65
2020/12/03 02:45:45;;;;;;;28.40;10.10;;;;;;;2.57;100.00;100029.31;5010800;28;20058;-65
2020/12/03 02:48:11;;;;;;;30.47;10.67;;;;;;;2.56;100.00;100022.41;5011597;28;20022;-65
2020/12/03 02:50:36;;;;;;;29.73;10.53;;;;;;;2.59;100.00;100023.34;5009092;28;20236;-64
2020/12/03 02:53:01;;;;;;;26.73;10.73;;;;;;;2.60;100.00;100013.88;5008771;28;20030;-65
2020/12/03 02:55:27;;;;;;;27.50;9.73;;;;;;;2.63;100.00;100016.53;5010121;28;20029;-65
2020/12/03 02:57:52;;;;;;;28.43;10.83;;;;;;;2.69;100.00;100013.22;5010304;28;20026;-64
2020/12/03 03:00:18;;;;;;;24.33;10.07;;;;;;;2.71;100.00;100003.81;5011314;28;20075;-65
2020/12/03 03:02:43;;;;;;;29.13;10.10;;;;;;;2.71;100.00;99996.06;5009184;28;20350;-66
2020/12/03 03:05:09;;;;;;;25.50;9.83;;;;;;;2.72;100.00;99993.50;5023767;28;20495;-65
2020/12/03 03:07:34;;;;;;;26.63;9.17;;;;;;;2.74;100.00;99999.56;5007776;28;20175;-65
2020/12/03 03:10:00;;;;;;;28.37;10.97;;;;;;;2.77;100.00;100002.19;5009121;28;20485;-65
2020/12/03 03:12:25;;;;;;;28.37;10.10;;;;;;;2.79;100.00;100005.72;5012617;28;20039;-65
2020/12/03 03:14:53;;;;;;;27.90;10.20;;;;;;;2.81;100.00;99985.09;5022161;28;20113;-65
2020/12/03 03:17:19;;;;;;;30.03;10.63;;;;;;;2.84;100.00;99992.91;5008699;28;20172;-65
2020/12/03 03:19:44;;;;;;;28.00;10.13;;;;;;;2.83;100.00;99973.94;5023829;28;20288;-65
2020/12/03 03:22:09;;;;;;;27.43;9.87;;;;;;;2.85;100.00;99974.84;5014990;28;20290;-65
2020/12/03 03:24:35;;;;;;;25.70;10.27;;;;;;;2.86;100.00;99978.31;5009748;28;20523;-65
2020/12/03 03:27:00;;;;;;;29.23;10.20;;;;;;;2.89;100.00;99971.47;5010448;28;20036;-65
2020/12/03 03:29:25;;;;;;;25.43;9.53;;;;;;;2.89;100.00;99971.47;5017095;28;20028;-65
2020/12/03 03:31:51;;;;;;;27.67;9.73;;;;;;;2.91;100.00;99962.09;5027945;28;20120;-65
2020/12/03 03:34:16;;;;;;;29.93;11.40;;;;;;;2.92;100.00;99955.19;5018627;28;20083;-65
2020/12/03 03:36:42;;;;;;;30.47;10.40;;;;;;;2.91;100.00;99959.50;5008754;28;20128;-65
2020/12/03 03:39:07;;;;;;;27.27;10.30;;;;;;;2.92;100.00;99953.50;5016367;28;20096;-64
2020/12/03 03:41:34;;;;;;;27.73;10.33;;;;;;;2.92;100.00;99948.31;5009545;28;20456;-65
2020/12/03 03:43:59;;;;;;;27.57;9.93;;;;;;;2.93;100.00;99942.31;5022827;28;20084;-65
2020/12/03 03:46:25;;;;;;;27.07;10.37;;;;;;;2.96;100.00;99948.38;5015015;28;20282;-65
2020/12/03 03:48:50;;;;;;;29.10;10.30;;;;;;;2.96;100.00;99943.22;5009889;28;20088;-64
2020/12/03 03:51:16;;;;;;;27.70;10.53;;;;;;;2.97;100.00;99930.34;5014692;28;20101;-64
2020/12/03 03:53:41;;;;;;;25.40;9.97;;;;;;;3.01;100.00;99931.25;5009361;28;20026;-65
2020/12/03 03:56:07;;;;;;;31.17;9.97;;;;;;;3.00;100.00;99937.25;5009767;28;20472;-65
2020/12/03 03:58:32;;;;;;;20.13;8.43;;;;;;;2.97;100.00;99917.41;5009934;28;20465;-65
2020/12/03 04:00:58;;;;;;;22.97;9.17;;;;;;;3.03;100.00;99921.81;5009867;28;20293;-65
2020/12/03 04:03:24;;;;;;;23.03;9.93;;;;;;;3.01;100.00;99913.19;5009803;28;20037;-65
2020/12/03 04:05:54;;;;;;;24.30;10.07;;;;;;;3.03;100.00;99912.38;5007844;28;20394;-65
2020/12/03 04:08:22;;;;;;;28.07;9.83;;;;;;;3.05;100.00;99909.84;5023882;28;20025;-65
2020/12/03 04:10:50;;;;;;;27.60;10.07;;;;;;;3.06;100.00;99916.72;5021129;28;20304;-64
2020/12/03 04:13:16;;;;;;;28.20;9.73;;;;;;;3.06;100.00;99914.16;5015304;28;20335;-65
2020/12/03 04:15:41;;;;;;;24.57;9.63;;;;;;;3.06;100.00;99911.56;5013289;28;20273;-65
2020/12/03 04:18:07;;;;;;;25.53;10.27;;;;;;;3.07;100.00;99908.13;5014639;28;20363;-65
2020/12/03 04:20:32;;;;;;;26.37;9.17;;;;;;;3.04;100.00;99901.22;5014754;28;20030;-65
2020/12/03 04:22:58;;;;;;;27.17;10.37;;;;;;;3.08;100.00;99894.38;5011280;28;20026;-66
2020/12/03 04:25:23;;;;;;;27.30;9.87;;;;;;;3.07;100.00;99897.81;5016671;28;20455;-66
2020/12/03 04:27:49;;;;;;;29.43;9.83;;;;;;;3.09;100.00;99890.97;5013714;28;20030;-65
2020/12/03 04:30:15;;;;;;;25.70;9.83;;;;;;;3.10;100.00;99895.28;5011949;28;20516;-66
2020/12/03 04:32:40;;;;;;;24.10;9.20;;;;;;;3.11;100.00;99889.25;5014760;28;20310;-65
2020/12/03 04:35:07;;;;;;;26.83;10.40;;;;;;;3.11;100.00;99881.50;5013121;28;20030;-66
2020/12/03 04:37:33;;;;;;;28.67;11.03;;;;;;;3.11;100.00;99878.94;5008284;28;20026;-66
2020/12/03 04:39:58;;;;;;;30.00;10.73;;;;;;;3.11;100.00;99884.09;5017922;28;20346;-66
2020/12/03 04:42:31;;;;;;;27.90;10.20;;;;;;;3.12;100.00;99875.50;5012706;28;20309;-66
2020/12/03 04:45:22;;;;;;;28.80;11.13;;;;;;;3.13;100.00;99864.34;5016548;28;20086;-66
2020/12/03 04:47:54;;;;;;;26.97;10.30;;;;;;;3.12;100.00;99860.00;5013123;28;20362;-65
2020/12/03 04:50:54;;;;;;;26.45;9.98;;;;;;;3.12;100.00;99847.09;5013923;28;20330;-65
2020/12/03 04:54:01;;;;;;;27.33;11.07;;;;;;;3.14;100.00;99853.16;5026034;28;20038;-66
2020/12/03 04:57:05;;;;;;;27.50;10.43;;;;;;;3.13;100.00;99835.91;4982427;28;20288;-65
2020/12/03 04:59:37;;;;;;;23.57;9.13;;;;;;;3.11;100.00;99832.44;5007230;28;20328;-65
2020/12/03 05:02:20;;;;;;;24.63;10.53;;;;;;;3.09;100.00;99823.81;5025167;28;20272;-66
2020/12/03 05:05:03;;;;;;;25.00;9.67;;;;;;;3.05;100.00;99807.41;5013832;28;20292;-66
2020/12/03 05:07:30;;;;;;;26.70;10.60;;;;;;;3.11;100.00;99811.78;5015453;28;20292;-66
2020/12/03 05:10:02;;;;;;;30.40;10.00;;;;;;;3.11;100.00;99816.94;5012451;28;20897;-66
2020/12/03 05:12:31;;;;;;;25.58;10.05;;;;;;;3.10;100.00;99812.63;5010925;28;20312;-66
2020/12/03 05:15:06;;;;;;;22.90;9.30;;;;;;;3.09;100.00;99808.31;5017223;28;20069;-66
2020/12/03 05:17:47;;;;;;;26.43;9.87;;;;;;;3.08;100.00;99811.75;5011694;28;20782;-66
2020/12/03 05:20:24;;;;;;;26.90;10.17;;;;;;;3.10;100.00;99804.88;5015272;28;20973;-66
2020/12/03 05:22:58;;;;;;;27.60;9.77;;;;;;;3.11;100.00;99801.47;5011719;28;20280;-66
2020/12/03 05:25:25;;;;;;;25.37;9.30;;;;;;;3.10;100.00;99807.47;5012195;28;20268;-66
2020/12/03 05:27:53;;;;;;;33.17;10.97;;;;;;;3.10;100.00;99799.72;5009953;28;20276;-66
2020/12/03 05:30:19;;;;;;;27.93;10.20;;;;;;;3.11;100.00;99806.63;5012182;28;20651;-65
2020/12/03 05:32:46;;;;;;;29.17;10.37;;;;;;;3.12;100.00;99803.19;5012212;28;20292;-66
2020/12/03 05:35:11;;;;;;;27.33;10.07;;;;;;;3.11;100.00;99801.47;5011486;28;20136;-66
2020/12/03 05:37:38;;;;;;;28.43;10.33;;;;;;;3.11;100.00;99801.47;5011789;28;20296;-66
2020/12/03 05:40:05;;;;;;;30.90;10.83;;;;;;;3.12;100.00;99805.78;5011061;28;20124;-66
2020/12/03 05:42:34;;;;;;;31.30;10.67;;;;;;;3.13;100.00;99804.94;5013889;28;20497;-66
2020/12/03 05:45:18;;;;;;;27.13;10.13;;;;;;;3.12;100.00;99804.06;5013563;28;20289;-66
2020/12/03 05:47:45;;;;;;;32.03;10.30;;;;;;;3.17;100.00;99801.56;5010722;28;20284;-66
2020/12/03 05:50:15;;;;;;;32.53;10.30;;;;;;;3.12;100.00;99798.03;5011605;28;20292;-66
2020/12/03 05:52:57;;;;;;;29.67;11.00;;;;;;;3.13;100.00;99794.59;5008843;28;20436;-66
2020/12/03 05:55:26;;;;;;;35.13;11.27;;;;;;;3.14;100.00;99788.59;5018717;28;20307;-66
2020/12/03 05:57:51;;;;;;;32.33;11.23;;;;;;;3.08;100.00;99776.44;5022414;28;20359;-66
2020/12/03 06:00:19;;;;;;;33.37;11.07;;;;;;;3.12;100.00;99788.56;5011346;28;20292;-66
2020/12/03 06:03:06;;;;;;;28.57;10.00;;;;;;;3.16;100.00;99784.34;5011282;28;20037;-66
2020/12/03 06:05:47;;;;;;;32.23;9.93;;;;;;;3.15;100.00;99777.41;5011570;28;20269;-67
2020/12/03 06:08:33;;;;;;;37.73;11.63;;;;;;;3.17;100.00;99775.75;5015031;28;20281;-66
2020/12/03 06:11:04;;;;;;;29.33;9.37;;;;;;;3.15;100.00;99778.31;5011203;28;20280;-65
2020/12/03 06:13:55;;;;;;;31.90;11.50;;;;;;;3.14;100.00;99765.34;5016650;28;20335;-65
2020/12/03 06:16:26;;;;;;;35.53;11.40;;;;;;;3.15;100.00;99767.06;5009882;28;20646;-65
2020/12/03 06:19:01;;;;;;;34.17;12.23;;;;;;;3.14;100.00;99771.38;5012043;28;20285;-66
2020/12/03 06:21:45;;;;;;;34.20;12.37;;;;;;;3.15;100.00;99769.66;5020841;28;21024;-66
2020/12/03 06:24:16;;;;;;;37.87;11.63;;;;;;;3.15;100.00;99767.97;5010780;28;20809;-66
2020/12/03 06:26:59;;;;;;;31.17;10.67;;;;;;;3.16;100.00;99771.44;5010182;28;20368;-66
2020/12/03 06:29:43;;;;;;;33.67;10.77;;;;;;;3.16;100.00;99767.13;5009817;28;20286;-66
2020/12/03 06:32:42;;;;;;;33.53;10.17;;;;;;;3.17;100.00;99761.13;5011567;28;20283;-65
2020/12/03 06:35:20;;;;;;;31.57;10.53;;;;;;;3.19;100.00;99761.13;5030027;28;20294;-66
2020/12/03 06:38:11;;;;;;;33.07;10.97;;;;;;;3.17;100.00;99757.66;5010214;28;20765;-65
2020/12/03 06:40:40;;;;;;;37.30;11.83;;;;;;;3.18;100.00;99746.47;5000695;28;20297;-65
2020/12/03 06:43:28;;;;;;;39.80;11.77;;;;;;;3.17;100.00;99744.75;5015631;28;20366;-66
2020/12/03 06:46:08;;;;;;;35.67;10.60;;;;;;;3.20;100.00;99731.88;5012720;28;20306;-66
2020/12/03 06:48:52;;;;;;;31.87;10.67;;;;;;;3.18;100.00;99736.16;5022897;28;20296;-66
2020/12/03 06:51:45;;;;;;;31.40;10.57;;;;;;;3.17;100.00;99734.41;5014291;28;20288;-66
2020/12/03 06:54:29;;;;;;;;;;;;;;;3.17;100.00;99719.78;5030792;28;21017;-65
2020/12/03 06:57:17;;;;;;;31.67;11.10;;;;;;;3.17;100.00;99708.59;5025233;28;20399;-66
2020/12/03 07:00:08;;;;;;;39.03;11.00;;;;;;;3.16;100.00;99699.09;5026711;28;20379;-66
2020/12/03 07:02:54;;;;;;;33.30;11.67;;;;;;;3.15;100.00;99700.81;5001925;28;20355;-66
2020/12/03 07:06:00;;;;;;;33.47;11.23;;;;;;;3.14;100.00;99693.88;5008183;28;20280;-65
2020/12/03 07:08:41;;;;;;;29.77;10.23;;;;;;;3.17;100.00;99687.94;4991208;28;20273;-66
2020/12/03 07:11:28;;;;;;;31.43;11.70;;;;;;;3.18;100.00;99685.38;5012032;28;20288;-65
2020/12/03 07:14:21;;;;;;;35.73;11.30;;;;;;;3.18;100.00;99687.94;5015491;28;20281;-66
2020/12/03 07:17:11;;;;;;;37.07;11.73;;;;;;;3.20;100.00;99683.66;5007835;28;20290;-65
2020/12/03 07:20:01;;;;;;;28.17;10.37;;;;;;;3.21;100.00;99685.41;5013199;28;20288;-65
2020/12/03 07:22:32;;;;;;;29.33;10.90;;;;;;;3.21;100.00;99692.28;5007970;28;20300;-65
2020/12/03 07:24:58;;;;;;;28.63;10.40;;;;;;;3.22;100.00;99696.59;5014552;28;20291;-65
2020/12/03 07:28:02;;;;;;;33.80;11.03;;;;;;;3.20;100.00;99687.97;5017814;28;20375;-66
2020/12/03 07:30:51;;;;;;;31.83;11.25;;;;;;;3.23;100.00;99693.16;5024131;28;20319;-66
2020/12/03 07:33:22;;;;;;;30.70;9.70;;;;;;;3.21;100.00;99685.41;5019168;28;20033;-65
2020/12/03 07:36:01;;;;;;;35.73;12.17;;;;;;;3.23;100.00;99685.41;5011602;28;20731;-66
2020/12/03 07:39:01;;;;;;;36.90;12.47;;;;;;;3.23;100.00;99675.09;5023377;28;20281;-66
2020/12/03 07:41:47;;;;;;;29.03;10.50;;;;;;;3.28;100.00;99672.59;5006492;28;20307;-65
2020/12/03 07:44:31;;;;;;;27.50;10.13;;;;;;;3.29;100.00;99672.59;5029244;28;20268;-65
2020/12/03 07:47:30;;;;;;;29.40;10.67;;;;;;;3.23;100.00;99673.38;5003178;28;20383;-66
2020/12/03 07:49:56;;;;;;;30.60;10.73;;;;;;;3.17;100.00;99669.84;5010004;28;20668;-66
2020/12/03 07:52:28;;;;;;;30.43;10.10;;;;;;;3.20;100.00;99664.72;5010879;28;20291;-66
2020/12/03 07:55:15;;;;;;;27.40;9.32;;;;;;;3.26;100.00;99669.94;5018720;28;20484;-67
2020/12/03 07:57:40;;;;;;;27.00;9.57;;;;;;;3.28;100.00;99670.00;5026686;28;20320;-66
2020/12/03 08:00:45;;;;;;;31.10;10.10;;;;;;;3.25;100.00;99663.06;5027352;28;20293;-66
2020/12/03 08:03:39;;;;;;;30.20;10.97;;;;;;;3.22;100.00;99670.78;5019795;28;20046;-65
2020/12/03 08:06:16;;;;;;;29.43;10.63;;;;;;;3.21;100.00;99662.16;5013705;28;20366;-65
2020/12/03 08:08:50;;;;;;;33.87;10.80;;;;;;;3.19;100.00;99660.41;5003602;28;21765;-65
2020/12/03 08:11:34;;;;;;;33.20;10.83;;;;;;;3.23;100.00;99659.59;5010290;28;20322;-65
2020/12/03 08:14:00;;;;;;;28.97;10.40;;;;;;;3.28;100.00;99650.19;5017299;28;20427;-66
2020/12/03 08:16:42;;;;;;;30.53;10.00;;;;;;;3.27;100.00;99660.50;5012892;28;20771;-66
2020/12/03 08:19:26;;;;;;;26.70;10.07;;;;;;;3.27;100.00;99658.81;5010652;28;20034;-66
2020/12/03 08:21:51;;;;;;;24.90;9.50;;;;;;;3.29;100.00;99654.53;5019481;28;20284;-66
2020/12/03 08:24:27;;;;;;;29.50;9.50;;;;;;;3.31;100.00;99655.41;5009929;28;20298;-66
2020/12/03 08:27:02;;;;;;;27.93;9.90;;;;;;;3.35;100.00;99657.16;5009911;28;20030;-66
2020/12/03 08:29:36;;;;;;;27.40;9.67;;;;;;;3.43;100.00;99641.78;5008225;28;20268;-66
2020/12/03 08:32:02;;;;;;;33.07;11.37;;;;;;;3.47;100.00;99641.81;5011017;28;20275;-66
2020/12/03 08:34:34;;;;;;;27.73;10.37;;;;;;;3.49;100.00;99640.13;5022859;28;20276;-66
2020/12/03 08:37:01;;;;;;;30.98;10.35;;;;;;;3.53;100.00;99635.88;5015011;28;20122;-66
2020/12/03 08:39:27;;;;;;;24.73;9.23;;;;;;;3.60;100.00;99631.66;5013254;28;20034;-65
2020/12/03 08:41:53;;;;;;;23.93;9.17;;;;;;;3.61;100.00;99623.91;5008892;28;20289;-65
2020/12/03 08:44:20;;;;;;;24.90;9.43;;;;;;;3.67;100.00;99623.13;5008788;28;20424;-66
2020/12/03 08:46:46;;;;;;;24.03;9.53;;;;;;;3.71;100.00;99619.72;5026681;28;20779;-66
2020/12/03 08:49:19;;;;;;;23.90;9.17;;;;;;;3.71;100.00;99614.53;5025239;28;20352;-66
2020/12/03 08:51:52;;;;;;;23.53;8.87;;;;;;;3.73;100.00;99602.50;5008593;28;20030;-66
2020/12/03 08:54:25;;;;;;;26.37;9.40;;;;;;;3.75;100.00;99606.81;4991679;28;20277;-66
2020/12/03 08:56:56;;;;;;;24.07;9.40;;;;;;;3.79;100.00;99605.16;4999761;28;20288;-66
2020/12/03 08:59:27;;;;;;;24.20;8.47;;;;;;;3.79;100.00;99607.75;5012483;28;20285;-66
2020/12/03 09:02:00;;;;;;;25.33;8.52;;;;;;;3.78;100.00;99601.72;5012690;28;20372;-66
2020/12/03 09:04:28;;;;;;;24.10;8.37;;;;;;;3.80;100.00;99593.97;5027558;28;20026;-66
2020/12/03 09:06:56;;;;;;;28.23;9.70;;;;;;;3.86;100.00;99595.75;5031137;28;20702;-66
2020/12/03 09:09:24;;;;;;;22.03;7.90;;;;;;;3.90;100.00;99600.97;5012243;28;20356;-66
2020/12/03 09:11:51;;;;;;;24.60;9.07;;;;;;;3.93;100.00;99592.38;5014929;28;20363;-66
2020/12/03 09:14:16;;;;;;;20.00;8.33;;;;;;;3.93;100.00;99595.84;5020583;28;20268;-66
2020/12/03 09:16:45;;;;;;;17.40;7.63;;;;;;;3.92;100.00;99595.81;5011169;28;20290;-66
2020/12/03 09:19:10;;;;;;;23.90;9.17;;;;;;;3.91;100.00;99582.03;5011916;28;20290;-66
2020/12/03 09:21:38;;;;;;;23.73;8.70;;;;;;;3.89;100.00;99578.56;5012130;28;20793;-66
2020/12/03 09:24:05;;;;;;;21.27;8.17;;;;;;;3.91;100.00;99571.69;5011983;28;20040;-66
2020/12/03 09:26:34;;;;;;;21.93;8.37;;;;;;;3.93;100.00;99575.13;5018997;28;20276;-66
2020/12/03 09:29:02;;;;;;;20.93;8.37;;;;;;;3.90;100.00;99575.13;5012933;28;20376;-65
2020/12/03 09:31:32;;;;;;;22.13;9.20;;;;;;;3.86;100.00;99569.88;5007336;28;20686;-66
2020/12/03 09:33:58;;;;;;;23.00;8.47;;;;;;;3.87;100.00;99564.72;5009253;28;20283;-66
2020/12/03 09:36:24;;;;;;;22.97;8.03;;;;;;;3.88;100.00;99560.41;5012703;28;20280;-65
2020/12/03 09:38:50;;;;;;;20.27;7.80;;;;;;;3.90;100.00;99564.78;5029869;28;20290;-66
2020/12/03 09:41:22;;;;;;;17.97;7.50;;;;;;;3.93;100.00;99561.34;5029346;28;20060;-66
2020/12/03 09:43:51;;;;;;;23.70;8.95;;;;;;;3.95;100.00;99557.06;5022994;28;20288;-66
2020/12/03 09:46:28;;;;;;;17.80;7.80;;;;;;;3.99;100.00;99549.31;5031867;28;20065;-66
2020/12/03 09:48:54;;;;;;;20.43;7.43;;;;;;;4.05;100.00;99549.41;5021000;28;20407;-66
2020/12/03 09:51:24;;;;;;;20.03;7.47;;;;;;;4.09;100.00;99545.97;5010858;28;20284;-66
2020/12/03 09:53:50;;;;;;;19.77;6.97;;;;;;;4.15;100.00;99537.41;5010484;28;20275;-66
2020/12/03 09:56:18;;;;;;;20.97;7.60;;;;;;;4.23;100.00;99537.47;5013538;28;20292;-66
2020/12/03 09:58:44;;;;;;;22.00;7.63;;;;;;;4.24;100.00;99534.00;5012147;28;20288;-66
2020/12/03 10:01:11;;;;;;;16.40;7.40;;;;;;;4.24;100.00;99518.50;5010911;28;20330;-66
2020/12/03 10:03:55;;;;;;;17.67;7.60;;;;;;;4.26;100.00;99519.41;5010866;28;20064;-66
2020/12/03 10:06:54;;;;;;;17.30;7.07;;;;;;;4.29;100.00;99516.81;5010507;28;20253;-66
2020/12/03 10:09:37;;;;;;;16.77;7.30;;;;;;;4.30;100.00;99500.44;5012604;28;20782;-66
2020/12/03 10:12:02;;;;;;;18.73;7.40;;;;;;;4.30;100.00;99493.53;5030841;28;20351;-66
2020/12/03 10:14:52;;;;;;;18.47;7.80;;;;;;;4.31;100.00;99489.22;5013081;28;20400;-66
2020/12/03 10:17:19;;;;;;;17.23;6.90;;;;;;;4.37;100.00;99484.13;5013136;28;20088;-66
2020/12/03 10:19:47;;;;;;;18.27;7.23;;;;;;;4.44;100.00;99477.25;5011000;28;20297;-66
2020/12/03 10:22:18;;;;;;;15.53;6.60;;;;;;;4.44;100.00;99472.94;5009781;28;20728;-65
2020/12/03 10:25:19;;;;;;;18.47;7.57;;;;;;;4.43;100.00;99473.78;5010680;28;20268;-66
2020/12/03 10:28:01;;;;;;;16.60;7.20;;;;;;;4.42;100.00;99466.88;5009425;28;20273;-65
2020/12/03 10:30:35;;;;;;;15.73;6.40;;;;;;;4.38;100.00;99455.66;5010764;28;20341;-66
2020/12/03 10:33:04;;;;;;;17.80;7.43;;;;;;;4.36;100.00;99451.31;5013231;28;20308;-66
2020/12/03 10:35:31;;;;;;;13.47;5.50;;;;;;;4.34;100.00;99450.44;5009056;28;20707;-66
2020/12/03 10:37:59;;;;;;;18.20;7.07;;;;;;;4.33;100.00;99446.13;5010217;28;20284;-65
2020/12/03 10:40:26;;;;;;;16.80;7.40;;;;;;;4.39;100.00;99441.00;5010208;28;20292;-66
2020/12/03 10:43:06;;;;;;;15.70;6.40;;;;;;;4.42;100.00;99446.19;5012491;28;20285;-66
2020/12/03 10:45:37;;;;;;;16.30;6.20;;;;;;;4.36;100.00;99436.66;5010263;28;20368;-66
2020/12/03 10:48:22;;;;;;;14.87;6.30;;;;;;;4.35;100.00;99436.63;5010610;28;20289;-66
2020/12/03 10:50:50;;;;;;;13.50;5.90;;;;;;;4.29;100.00;99434.03;5005955;28;20647;-65
2020/12/03 10:53:24;;;;;;;13.53;6.50;;;;;;;4.27;100.00;99430.56;5009517;28;20272;-66
2020/12/03 10:56:00;;;;;;;13.97;5.93;;;;;;;4.22;100.00;99430.50;5011970;28;20770;-66
2020/12/03 10:59:01;;;;;;;14.93;6.20;;;;;;;4.20;100.00;99428.78;5010513;28;20367;-66
2020/12/03 11:01:29;;;;;;;13.33;5.83;;;;;;;4.24;100.00;99415.00;5010466;28;20692;-66
2020/12/03 11:03:58;;;;;;;18.67;7.03;;;;;;;4.26;100.00;99418.50;5009837;28;20263;-66
2020/12/03 11:06:29;;;;;;;20.53;9.80;;;;;;;4.29;100.00;99408.16;5009980;28;20841;-65
2020/12/03 11:08:55;;;;;;;20.10;9.27;;;;;;;4.26;100.00;99413.31;5010364;28;20273;-66
2020/12/03 11:11:22;;;;;;;14.73;7.17;;;;;;;4.30;100.00;99408.16;5010232;28;20273;-66
2020/12/03 11:13:47;;;;;;;18.43;8.53;;;;;;;4.30;100.00;99404.69;5019345;28;20304;-65
2020/12/03 11:16:20;;;;;;;17.47;7.53;;;;;;;4.28;100.00;99406.44;4990671;28;20296;-66
2020/12/03 11:18:48;;;;;;;17.27;6.95;;;;;;;4.28;100.00;99396.06;5003913;28;20026;-66
2020/12/03 11:21:18;;;;;;;16.77;6.40;;;;;;;4.27;100.00;99389.16;5009710;28;20065;-66
2020/12/03 11:24:16;;;;;;;17.00;6.43;;;;;;;4.31;100.00;99388.31;5009510;28;20779;-66
2020/12/03 11:26:45;;;;;;;14.93;6.00;;;;;;;4.30;100.00;99390.03;5009773;28;20276;-66
2020/12/03 11:29:13;;;;;;;20.70;7.63;;;;;;;4.32;100.00;99387.47;5011125;28;20275;-66
2020/12/03 11:31:39;;;;;;;16.77;7.43;;;;;;;4.34;100.00;99383.16;5019947;28;20287;-66
2020/12/03 11:34:05;;;;;;;16.47;7.63;;;;;;;4.29;100.00;99387.44;5014897;28;20636;-66
2020/12/03 11:36:37;;;;;;;14.40;6.03;;;;;;;4.25;100.00;99381.41;5016270;28;20717;-66
2020/12/03 11:39:05;;;;;;;15.40;6.47;;;;;;;4.24;100.00;99378.78;4990724;28;20292;-66
2020/12/03 11:41:40;;;;;;;13.93;5.60;;;;;;;4.22;100.00;99380.50;4999161;28;20284;-66